sensor_id;sensor_type;location;lat;lon;timestamp;temperature;humidity
75363;DHT22;64122;51.988;5.892;2023-04-25T00:00:39;8.41;71.88
75363;DHT22;64122;51.988;5.892;2023-04-25T00:03:08;8.36;71.97
75363;DHT22;64122;51.988;5.892;2023-04-25T00:05:37;8.34;71.97
75363;DHT22;64122;51.988;5.892;2023-04-25T00:08:07;8.33;71.97
75363;DHT22;64122;51.988;5.892;2023-04-25T00:10:36;8.28;71.84
75363;DHT22;64122;51.988;5.892;2023-04-25T00:13:05;8.24;71.87
75363;DHT22;64122;51.988;5.892;2023-04-25T00:15:38;8.20;71.84
75363;DHT22;64122;51.988;5.892;2023-04-25T00:18:07;8.20;71.77
75363;DHT22;64122;51.988;5.892;2023-04-25T00:20:37;8.14;71.72
75363;DHT22;64122;51.988;5.892;2023-04-25T00:23:06;8.07;71.73
75363;DHT22;64122;51.988;5.892;2023-04-25T00:25:36;8.03;71.77
75363;DHT22;64122;51.988;5.892;2023-04-25T00:28:05;8.01;71.87
75363;DHT22;64122;51.988;5.892;2023-04-25T00:30:37;7.98;71.72
75363;DHT22;64122;51.988;5.892;2023-04-25T00:33:07;7.97;72.00
75363;DHT22;64122;51.988;5.892;2023-04-25T00:35:37;7.97;72.05
75363;DHT22;64122;51.988;5.892;2023-04-25T00:38:07;7.94;72.07
75363;DHT22;64122;51.988;5.892;2023-04-25T00:40:36;7.96;71.97
75363;DHT22;64122;51.988;5.892;2023-04-25T00:43:05;7.96;72.05
75363;DHT22;64122;51.988;5.892;2023-04-25T00:45:38;7.97;72.16
75363;DHT22;64122;51.988;5.892;2023-04-25T00:48:08;8.02;72.13
75363;DHT22;64122;51.988;5.892;2023-04-25T00:50:38;8.07;72.03
75363;DHT22;64122;51.988;5.892;2023-04-25T00:53:07;8.16;72.00
75363;DHT22;64122;51.988;5.892;2023-04-25T00:55:36;8.26;71.75
75363;DHT22;64122;51.988;5.892;2023-04-25T00:58:05;8.29;71.71
75363;DHT22;64122;51.988;5.892;2023-04-25T01:00:37;8.27;71.74
75363;DHT22;64122;51.988;5.892;2023-04-25T01:03:07;8.24;71.86
75363;DHT22;64122;51.988;5.892;2023-04-25T01:05:36;8.17;72.12
75363;DHT22;64122;51.988;5.892;2023-04-25T01:08:05;8.12;72.49
75363;DHT22;64122;51.988;5.892;2023-04-25T01:10:34;8.06;72.49
75363;DHT22;64122;51.988;5.892;2023-04-25T01:13:04;8.01;72.63
75363;DHT22;64122;51.988;5.892;2023-04-25T01:15:33;7.97;72.74
75363;DHT22;64122;51.988;5.892;2023-04-25T01:18:06;7.94;72.77
75363;DHT22;64122;51.988;5.892;2023-04-25T01:20:37;7.99;72.64
75363;DHT22;64122;51.988;5.892;2023-04-25T01:23:10;8.01;72.47
75363;DHT22;64122;51.988;5.892;2023-04-25T01:25:40;8.03;72.36
75363;DHT22;64122;51.988;5.892;2023-04-25T01:28:09;8.07;72.28
75363;DHT22;64122;51.988;5.892;2023-04-25T01:30:39;8.08;72.03
75363;DHT22;64122;51.988;5.892;2023-04-25T01:33:09;8.14;71.94
75363;DHT22;64122;51.988;5.892;2023-04-25T01:35:39;8.18;71.80
75363;DHT22;64122;51.988;5.892;2023-04-25T01:38:12;8.21;71.69
75363;DHT22;64122;51.988;5.892;2023-04-25T01:40:41;8.09;71.67
75363;DHT22;64122;51.988;5.892;2023-04-25T01:43:10;8.23;71.59
75363;DHT22;64122;51.988;5.892;2023-04-25T01:45:40;8.32;71.14
75363;DHT22;64122;51.988;5.892;2023-04-25T01:48:12;8.29;70.75
75363;DHT22;64122;51.988;5.892;2023-04-25T01:50:44;8.30;70.64
75363;DHT22;64122;51.988;5.892;2023-04-25T01:53:16;8.32;70.45
75363;DHT22;64122;51.988;5.892;2023-04-25T01:55:46;8.35;70.17
75363;DHT22;64122;51.988;5.892;2023-04-25T01:58:18;8.36;70.07
75363;DHT22;64122;51.988;5.892;2023-04-25T02:00:58;8.36;70.00
75363;DHT22;64122;51.988;5.892;2023-04-25T02:03:34;8.37;69.89
75363;DHT22;64122;51.988;5.892;2023-04-25T02:06:07;8.38;69.79
75363;DHT22;64122;51.988;5.892;2023-04-25T02:08:43;8.35;69.60
75363;DHT22;64122;51.988;5.892;2023-04-25T02:11:13;8.35;69.90
75363;DHT22;64122;51.988;5.892;2023-04-25T02:13:53;8.32;69.92
75363;DHT22;64122;51.988;5.892;2023-04-25T02:16:38;8.29;69.90
75363;DHT22;64122;51.988;5.892;2023-04-25T02:19:10;8.30;69.84
75363;DHT22;64122;51.988;5.892;2023-04-25T02:21:39;8.28;69.81
75363;DHT22;64122;51.988;5.892;2023-04-25T02:24:13;8.26;69.98
75363;DHT22;64122;51.988;5.892;2023-04-25T02:26:43;8.26;69.69
75363;DHT22;64122;51.988;5.892;2023-04-25T02:29:13;8.24;69.65
75363;DHT22;64122;51.988;5.892;2023-04-25T02:31:42;8.23;69.53
75363;DHT22;64122;51.988;5.892;2023-04-25T02:34:11;8.22;69.39
75363;DHT22;64122;51.988;5.892;2023-04-25T02:36:40;8.18;69.42
75363;DHT22;64122;51.988;5.892;2023-04-25T02:39:10;8.16;69.15
75363;DHT22;64122;51.988;5.892;2023-04-25T02:41:41;8.12;69.06
75363;DHT22;64122;51.988;5.892;2023-04-25T02:44:11;8.06;69.27
75363;DHT22;64122;51.988;5.892;2023-04-25T02:46:40;7.99;69.30
75363;DHT22;64122;51.988;5.892;2023-04-25T02:49:09;7.90;69.45
75363;DHT22;64122;51.988;5.892;2023-04-25T02:51:38;7.82;69.61
75363;DHT22;64122;51.988;5.892;2023-04-25T02:54:08;7.72;69.76
75363;DHT22;64122;51.988;5.892;2023-04-25T02:56:43;7.64;69.87
75363;DHT22;64122;51.988;5.892;2023-04-25T02:59:18;7.59;70.10
75363;DHT22;64122;51.988;5.892;2023-04-25T03:01:47;7.53;70.13
75363;DHT22;64122;51.988;5.892;2023-04-25T03:04:17;7.49;70.15
75363;DHT22;64122;51.988;5.892;2023-04-25T03:06:47;7.48;70.16
75363;DHT22;64122;51.988;5.892;2023-04-25T03:09:16;7.44;70.03
75363;DHT22;64122;51.988;5.892;2023-04-25T03:11:48;7.37;70.07
75363;DHT22;64122;51.988;5.892;2023-04-25T03:14:18;7.32;70.35
75363;DHT22;64122;51.988;5.892;2023-04-25T03:16:47;7.29;70.37
75363;DHT22;64122;51.988;5.892;2023-04-25T03:19:17;7.26;70.45
75363;DHT22;64122;51.988;5.892;2023-04-25T03:21:47;7.26;70.55
75363;DHT22;64122;51.988;5.892;2023-04-25T03:24:17;7.25;70.51
75363;DHT22;64122;51.988;5.892;2023-04-25T03:26:49;7.27;70.37
75363;DHT22;64122;51.988;5.892;2023-04-25T03:29:18;7.23;70.63
75363;DHT22;64122;51.988;5.892;2023-04-25T03:31:51;7.22;70.50
75363;DHT22;64122;51.988;5.892;2023-04-25T03:34:21;7.23;70.51
75363;DHT22;64122;51.988;5.892;2023-04-25T03:36:50;7.20;70.42
75363;DHT22;64122;51.988;5.892;2023-04-25T03:39:19;7.15;70.50
75363;DHT22;64122;51.988;5.892;2023-04-25T03:41:53;7.09;70.81
75363;DHT22;64122;51.988;5.892;2023-04-25T03:44:23;7.08;70.75
75363;DHT22;64122;51.988;5.892;2023-04-25T03:46:53;7.09;70.72
75363;DHT22;64122;51.988;5.892;2023-04-25T03:49:22;7.17;70.69
75363;DHT22;64122;51.988;5.892;2023-04-25T03:51:58;7.25;70.30
75363;DHT22;64122;51.988;5.892;2023-04-25T03:54:29;7.26;70.26
75363;DHT22;64122;51.988;5.892;2023-04-25T03:57:07;7.25;70.23
75363;DHT22;64122;51.988;5.892;2023-04-25T03:59:38;7.20;70.39
75363;DHT22;64122;51.988;5.892;2023-04-25T04:02:10;7.15;70.35
75363;DHT22;64122;51.988;5.892;2023-04-25T04:04:41;7.05;70.48
75363;DHT22;64122;51.988;5.892;2023-04-25T04:07:10;7.02;70.64
75363;DHT22;64122;51.988;5.892;2023-04-25T04:09:41;6.98;70.52
75363;DHT22;64122;51.988;5.892;2023-04-25T04:12:20;6.90;70.56
75363;DHT22;64122;51.988;5.892;2023-04-25T04:14:49;6.88;70.55
75363;DHT22;64122;51.988;5.892;2023-04-25T04:17:18;6.84;70.65
75363;DHT22;64122;51.988;5.892;2023-04-25T04:19:48;6.81;70.75
75363;DHT22;64122;51.988;5.892;2023-04-25T04:22:19;6.78;70.84
75363;DHT22;64122;51.988;5.892;2023-04-25T04:24:50;6.76;70.76
75363;DHT22;64122;51.988;5.892;2023-04-25T04:27:45;6.69;70.72
75363;DHT22;64122;51.988;5.892;2023-04-25T04:30:33;6.65;70.76
75363;DHT22;64122;51.988;5.892;2023-04-25T04:33:07;6.65;70.85
75363;DHT22;64122;51.988;5.892;2023-04-25T04:35:38;6.67;70.74
75363;DHT22;64122;51.988;5.892;2023-04-25T04:38:08;6.69;70.62
75363;DHT22;64122;51.988;5.892;2023-04-25T04:40:38;6.73;70.44
75363;DHT22;64122;51.988;5.892;2023-04-25T04:43:25;6.80;70.23
75363;DHT22;64122;51.988;5.892;2023-04-25T04:46:13;6.89;69.89
75363;DHT22;64122;51.988;5.892;2023-04-25T04:49:11;6.96;69.74
75363;DHT22;64122;51.988;5.892;2023-04-25T04:51:40;7.02;69.52
75363;DHT22;64122;51.988;5.892;2023-04-25T04:54:36;7.10;69.42
75363;DHT22;64122;51.988;5.892;2023-04-25T04:57:15;7.17;69.04
75363;DHT22;64122;51.988;5.892;2023-04-25T05:00:08;7.25;68.76
75363;DHT22;64122;51.988;5.892;2023-04-25T05:03:06;7.29;68.71
75363;DHT22;64122;51.988;5.892;2023-04-25T05:05:50;7.34;68.54
75363;DHT22;64122;51.988;5.892;2023-04-25T05:08:40;7.37;68.42
75363;DHT22;64122;51.988;5.892;2023-04-25T05:11:12;7.42;68.42
75363;DHT22;64122;51.988;5.892;2023-04-25T05:14:02;7.43;68.38
75363;DHT22;64122;51.988;5.892;2023-04-25T05:16:57;7.33;68.70
75363;DHT22;64122;51.988;5.892;2023-04-25T05:19:59;7.43;68.48
75363;DHT22;64122;51.988;5.892;2023-04-25T05:22:39;7.49;68.37
75363;DHT22;64122;51.988;5.892;2023-04-25T05:25:13;7.56;68.19
75363;DHT22;64122;51.988;5.892;2023-04-25T05:28:20;7.62;68.10
75363;DHT22;64122;51.988;5.892;2023-04-25T05:31:12;7.74;67.70
75363;DHT22;64122;51.988;5.892;2023-04-25T05:34:04;7.86;67.72
75363;DHT22;64122;51.988;5.892;2023-04-25T05:37:00;7.96;67.39
75363;DHT22;64122;51.988;5.892;2023-04-25T05:39:30;8.06;67.47
75363;DHT22;64122;51.988;5.892;2023-04-25T05:42:16;8.14;67.17
75363;DHT22;64122;51.988;5.892;2023-04-25T05:45:12;8.14;67.20
75363;DHT22;64122;51.988;5.892;2023-04-25T05:48:09;8.11;67.06
75363;DHT22;64122;51.988;5.892;2023-04-25T05:50:59;8.04;67.09
75363;DHT22;64122;51.988;5.892;2023-04-25T05:53:58;8.00;67.07
75363;DHT22;64122;51.988;5.892;2023-04-25T05:56:27;8.02;66.97
75363;DHT22;64122;51.988;5.892;2023-04-25T05:58:56;8.02;66.99
75363;DHT22;64122;51.988;5.892;2023-04-25T06:01:25;8.11;66.78
75363;DHT22;64122;51.988;5.892;2023-04-25T06:03:55;8.31;66.47
75363;DHT22;64122;51.988;5.892;2023-04-25T06:06:27;8.57;65.61
75363;DHT22;64122;51.988;5.892;2023-04-25T06:08:58;8.80;65.14
75363;DHT22;64122;51.988;5.892;2023-04-25T06:11:28;8.92;64.66
75363;DHT22;64122;51.988;5.892;2023-04-25T06:13:57;9.04;64.59
75363;DHT22;64122;51.988;5.892;2023-04-25T06:16:27;9.17;64.18
75363;DHT22;64122;51.988;5.892;2023-04-25T06:18:56;9.33;63.82
75363;DHT22;64122;51.988;5.892;2023-04-25T06:21:28;9.45;63.48
75363;DHT22;64122;51.988;5.892;2023-04-25T06:23:58;9.31;64.04
75363;DHT22;64122;51.988;5.892;2023-04-25T06:26:28;9.33;63.18
75363;DHT22;64122;51.988;5.892;2023-04-25T06:28:57;9.38;63.10
75363;DHT22;64122;51.988;5.892;2023-04-25T06:31:27;9.57;62.81
75363;DHT22;64122;51.988;5.892;2023-04-25T06:33:59;9.76;62.06
75363;DHT22;64122;51.988;5.892;2023-04-25T06:36:34;10.00;61.48
75363;DHT22;64122;51.988;5.892;2023-04-25T06:39:07;10.18;60.99
75363;DHT22;64122;51.988;5.892;2023-04-25T06:41:37;10.41;60.65
75363;DHT22;64122;51.988;5.892;2023-04-25T06:44:07;10.65;59.94
75363;DHT22;64122;51.988;5.892;2023-04-25T06:46:49;10.85;59.53
75363;DHT22;64122;51.988;5.892;2023-04-25T06:49:18;10.96;59.08
75363;DHT22;64122;51.988;5.892;2023-04-25T06:51:50;11.09;59.23
75363;DHT22;64122;51.988;5.892;2023-04-25T06:54:20;11.17;58.41
75363;DHT22;64122;51.988;5.892;2023-04-25T06:56:59;11.12;59.90
75363;DHT22;64122;51.988;5.892;2023-04-25T06:59:29;11.18;58.73
75363;DHT22;64122;51.988;5.892;2023-04-25T07:01:58;11.23;58.77
75363;DHT22;64122;51.988;5.892;2023-04-25T07:04:28;11.20;58.67
75363;DHT22;64122;51.988;5.892;2023-04-25T07:07:01;11.19;58.59
75363;DHT22;64122;51.988;5.892;2023-04-25T07:09:41;11.18;58.52
75363;DHT22;64122;51.988;5.892;2023-04-25T07:12:10;11.71;57.48
75363;DHT22;64122;51.988;5.892;2023-04-25T07:14:40;13.98;51.99
75363;DHT22;64122;51.988;5.892;2023-04-25T07:17:10;16.79;45.95
75363;DHT22;64122;51.988;5.892;2023-04-25T07:19:39;18.22;42.98
75363;DHT22;64122;51.988;5.892;2023-04-25T07:22:12;19.32;41.35
75363;DHT22;64122;51.988;5.892;2023-04-25T07:24:42;20.16;41.67
75363;DHT22;64122;51.988;5.892;2023-04-25T07:27:15;21.96;36.38
75363;DHT22;64122;51.988;5.892;2023-04-25T07:29:51;23.22;33.69
75363;DHT22;64122;51.988;5.892;2023-04-25T07:32:22;22.80;33.65
75363;DHT22;64122;51.988;5.892;2023-04-25T07:34:52;21.78;34.53
75363;DHT22;64122;51.988;5.892;2023-04-25T07:37:24;20.69;36.63
75363;DHT22;64122;51.988;5.892;2023-04-25T07:40:05;21.02;35.69
75363;DHT22;64122;51.988;5.892;2023-04-25T07:42:36;19.67;37.70
75363;DHT22;64122;51.988;5.892;2023-04-25T07:45:07;18.11;38.43
75363;DHT22;64122;51.988;5.892;2023-04-25T07:47:39;17.03;40.25
75363;DHT22;64122;51.988;5.892;2023-04-25T07:50:09;16.37;41.56
75363;DHT22;64122;51.988;5.892;2023-04-25T07:52:41;16.27;42.19
75363;DHT22;64122;51.988;5.892;2023-04-25T07:55:31;16.24;41.98
75363;DHT22;64122;51.988;5.892;2023-04-25T07:58:06;15.96;42.15
75363;DHT22;64122;51.988;5.892;2023-04-25T08:00:38;16.36;41.71
75363;DHT22;64122;51.988;5.892;2023-04-25T08:03:26;17.76;38.19
75363;DHT22;64122;51.988;5.892;2023-04-25T08:05:56;18.54;36.66
75363;DHT22;64122;51.988;5.892;2023-04-25T08:08:32;18.12;37.22
75363;DHT22;64122;51.988;5.892;2023-04-25T08:11:02;17.80;37.98
75363;DHT22;64122;51.988;5.892;2023-04-25T08:13:32;18.97;36.56
75363;DHT22;64122;51.988;5.892;2023-04-25T08:16:01;21.07;31.72
75363;DHT22;64122;51.988;5.892;2023-04-25T08:18:30;22.50;29.00
75363;DHT22;64122;51.988;5.892;2023-04-25T08:21:00;23.44;27.09
75363;DHT22;64122;51.988;5.892;2023-04-25T08:23:32;24.49;25.90
75363;DHT22;64122;51.988;5.892;2023-04-25T08:26:04;24.73;23.82
75363;DHT22;64122;51.988;5.892;2023-04-25T08:28:37;25.01;23.87
75363;DHT22;64122;51.988;5.892;2023-04-25T08:31:06;25.40;21.79
75363;DHT22;64122;51.988;5.892;2023-04-25T08:33:45;25.82;22.02
75363;DHT22;64122;51.988;5.892;2023-04-25T08:36:26;23.72;24.57
75363;DHT22;64122;51.988;5.892;2023-04-25T08:38:59;21.60;27.52
75363;DHT22;64122;51.988;5.892;2023-04-25T08:41:28;19.81;30.83
75363;DHT22;64122;51.988;5.892;2023-04-25T08:43:58;18.48;33.11
75363;DHT22;64122;51.988;5.892;2023-04-25T08:46:30;17.24;35.28
75363;DHT22;64122;51.988;5.892;2023-04-25T08:49:12;16.20;37.37
75363;DHT22;64122;51.988;5.892;2023-04-25T08:51:45;15.63;37.87
75363;DHT22;64122;51.988;5.892;2023-04-25T08:54:23;15.48;38.14
75363;DHT22;64122;51.988;5.892;2023-04-25T08:56:55;15.09;38.14
75363;DHT22;64122;51.988;5.892;2023-04-25T08:59:25;14.71;39.17
75363;DHT22;64122;51.988;5.892;2023-04-25T09:01:56;14.51;41.31
75363;DHT22;64122;51.988;5.892;2023-04-25T09:04:25;14.27;41.44
75363;DHT22;64122;51.988;5.892;2023-04-25T09:06:55;13.91;41.62
75363;DHT22;64122;51.988;5.892;2023-04-25T09:09:28;13.64;42.06
75363;DHT22;64122;51.988;5.892;2023-04-25T09:11:58;13.41;41.13
75363;DHT22;64122;51.988;5.892;2023-04-25T09:14:28;13.18;41.84
75363;DHT22;64122;51.988;5.892;2023-04-25T09:17:12;13.10;42.75
75363;DHT22;64122;51.988;5.892;2023-04-25T09:19:44;12.96;43.24
75363;DHT22;64122;51.988;5.892;2023-04-25T09:22:21;12.94;43.28
75363;DHT22;64122;51.988;5.892;2023-04-25T09:24:53;13.05;43.22
75363;DHT22;64122;51.988;5.892;2023-04-25T09:27:25;13.23;43.36
75363;DHT22;64122;51.988;5.892;2023-04-25T09:30:15;13.31;43.61
75363;DHT22;64122;51.988;5.892;2023-04-25T09:33:04;13.37;43.54
75363;DHT22;64122;51.988;5.892;2023-04-25T09:35:38;13.48;42.34
75363;DHT22;64122;51.988;5.892;2023-04-25T09:38:12;13.65;41.49
75363;DHT22;64122;51.988;5.892;2023-04-25T09:41:09;14.27;41.36
75363;DHT22;64122;51.988;5.892;2023-04-25T09:43:45;15.98;37.50
75363;DHT22;64122;51.988;5.892;2023-04-25T09:46:15;17.21;35.22
75363;DHT22;64122;51.988;5.892;2023-04-25T09:48:51;18.11;34.05
75363;DHT22;64122;51.988;5.892;2023-04-25T09:51:53;18.79;32.61
75363;DHT22;64122;51.988;5.892;2023-04-25T09:54:25;18.82;32.59
75363;DHT22;64122;51.988;5.892;2023-04-25T09:57:18;19.17;32.82
75363;DHT22;64122;51.988;5.892;2023-04-25T09:59:50;19.44;31.97
75363;DHT22;64122;51.988;5.892;2023-04-25T10:02:21;18.70;32.24
75363;DHT22;64122;51.988;5.892;2023-04-25T10:04:55;18.49;32.55
75363;DHT22;64122;51.988;5.892;2023-04-25T10:07:31;18.56;32.39
75363;DHT22;64122;51.988;5.892;2023-04-25T10:10:07;17.72;31.69
75363;DHT22;64122;51.988;5.892;2023-04-25T10:12:40;16.59;32.71
75363;DHT22;64122;51.988;5.892;2023-04-25T10:15:10;15.77;34.31
75363;DHT22;64122;51.988;5.892;2023-04-25T10:17:39;15.22;36.99
75363;DHT22;64122;51.988;5.892;2023-04-25T10:20:09;14.80;38.77
75363;DHT22;64122;51.988;5.892;2023-04-25T10:22:41;14.66;39.46
75363;DHT22;64122;51.988;5.892;2023-04-25T10:25:11;14.68;38.84
75363;DHT22;64122;51.988;5.892;2023-04-25T10:27:44;14.94;37.05
75363;DHT22;64122;51.988;5.892;2023-04-25T10:30:14;14.89;36.30
75363;DHT22;64122;51.988;5.892;2023-04-25T10:32:44;14.66;36.82
75363;DHT22;64122;51.988;5.892;2023-04-25T10:35:18;14.45;37.30
75363;DHT22;64122;51.988;5.892;2023-04-25T10:37:58;14.20;38.44
75363;DHT22;64122;51.988;5.892;2023-04-25T10:40:27;13.69;40.91
75363;DHT22;64122;51.988;5.892;2023-04-25T10:43:35;13.33;42.90
75363;DHT22;64122;51.988;5.892;2023-04-25T10:46:19;13.25;43.16
75363;DHT22;64122;51.988;5.892;2023-04-25T10:48:49;13.18;43.30
75363;DHT22;64122;51.988;5.892;2023-04-25T10:51:20;13.46;43.42
75363;DHT22;64122;51.988;5.892;2023-04-25T10:54:00;13.78;43.04
75363;DHT22;64122;51.988;5.892;2023-04-25T10:56:31;14.35;42.67
75363;DHT22;64122;51.988;5.892;2023-04-25T10:59:09;14.67;41.74
75363;DHT22;64122;51.988;5.892;2023-04-25T11:01:40;14.35;41.68
75363;DHT22;64122;51.988;5.892;2023-04-25T11:04:20;14.04;41.96
75363;DHT22;64122;51.988;5.892;2023-04-25T11:07:09;13.89;42.38
75363;DHT22;64122;51.988;5.892;2023-04-25T11:09:40;13.70;42.00
75363;DHT22;64122;51.988;5.892;2023-04-25T11:12:10;13.63;41.01
75363;DHT22;64122;51.988;5.892;2023-04-25T11:14:43;13.55;41.25
75363;DHT22;64122;51.988;5.892;2023-04-25T11:17:13;13.34;41.87
75363;DHT22;64122;51.988;5.892;2023-04-25T11:19:42;13.44;42.26
75363;DHT22;64122;51.988;5.892;2023-04-25T11:22:12;13.78;41.71
75363;DHT22;64122;51.988;5.892;2023-04-25T11:24:41;13.69;40.88
75363;DHT22;64122;51.988;5.892;2023-04-25T11:27:10;13.75;39.53
75363;DHT22;64122;51.988;5.892;2023-04-25T11:29:43;13.92;38.17
75363;DHT22;64122;51.988;5.892;2023-04-25T11:32:15;14.00;37.70
75363;DHT22;64122;51.988;5.892;2023-04-25T11:34:44;14.14;36.74
75363;DHT22;64122;51.988;5.892;2023-04-25T11:37:14;14.33;36.40
75363;DHT22;64122;51.988;5.892;2023-04-25T11:39:44;14.41;36.35
75363;DHT22;64122;51.988;5.892;2023-04-25T11:42:14;14.42;36.11
75363;DHT22;64122;51.988;5.892;2023-04-25T11:44:47;14.05;36.52
75363;DHT22;64122;51.988;5.892;2023-04-25T11:47:16;13.80;37.00
75363;DHT22;64122;51.988;5.892;2023-04-25T11:49:45;13.77;37.82
75363;DHT22;64122;51.988;5.892;2023-04-25T11:52:15;14.00;37.60
75363;DHT22;64122;51.988;5.892;2023-04-25T11:54:44;14.39;37.39
75363;DHT22;64122;51.988;5.892;2023-04-25T11:57:13;14.66;36.12
75363;DHT22;64122;51.988;5.892;2023-04-25T11:59:46;14.99;35.87
75363;DHT22;64122;51.988;5.892;2023-04-25T12:02:24;15.28;36.01
75363;DHT22;64122;51.988;5.892;2023-04-25T12:04:59;15.19;35.51
75363;DHT22;64122;51.988;5.892;2023-04-25T12:07:29;15.06;35.63
75363;DHT22;64122;51.988;5.892;2023-04-25T12:09:58;14.84;35.91
75363;DHT22;64122;51.988;5.892;2023-04-25T12:12:32;14.65;37.75
75363;DHT22;64122;51.988;5.892;2023-04-25T12:15:12;14.21;38.82
75363;DHT22;64122;51.988;5.892;2023-04-25T12:17:45;13.71;40.15
75363;DHT22;64122;51.988;5.892;2023-04-25T12:20:16;13.36;41.16
75363;DHT22;64122;51.988;5.892;2023-04-25T12:22:47;13.10;42.52
75363;DHT22;64122;51.988;5.892;2023-04-25T12:25:34;12.89;43.61
75363;DHT22;64122;51.988;5.892;2023-04-25T12:28:11;12.65;44.48
75363;DHT22;64122;51.988;5.892;2023-04-25T12:30:57;12.50;45.10
75363;DHT22;64122;51.988;5.892;2023-04-25T12:33:29;12.56;44.56
75363;DHT22;64122;51.988;5.892;2023-04-25T12:35:59;12.63;44.80
75363;DHT22;64122;51.988;5.892;2023-04-25T12:38:31;12.71;44.68
75363;DHT22;64122;51.988;5.892;2023-04-25T12:41:04;12.81;44.64
75363;DHT22;64122;51.988;5.892;2023-04-25T12:43:34;12.99;44.32
75363;DHT22;64122;51.988;5.892;2023-04-25T12:46:06;13.12;43.64
75363;DHT22;64122;51.988;5.892;2023-04-25T12:48:35;13.17;43.35
75363;DHT22;64122;51.988;5.892;2023-04-25T12:51:04;13.39;43.19
75363;DHT22;64122;51.988;5.892;2023-04-25T12:53:34;13.59;42.65
75363;DHT22;64122;51.988;5.892;2023-04-25T12:56:06;13.70;42.38
75363;DHT22;64122;51.988;5.892;2023-04-25T12:58:35;13.79;42.27
75363;DHT22;64122;51.988;5.892;2023-04-25T13:01:07;13.92;41.02
75363;DHT22;64122;51.988;5.892;2023-04-25T13:03:37;14.03;40.56
75363;DHT22;64122;51.988;5.892;2023-04-25T13:06:07;14.15;39.75
75363;DHT22;64122;51.988;5.892;2023-04-25T13:08:36;14.19;39.74
75363;DHT22;64122;51.988;5.892;2023-04-25T13:11:05;14.24;39.56
75363;DHT22;64122;51.988;5.892;2023-04-25T13:13:35;14.33;39.33
75363;DHT22;64122;51.988;5.892;2023-04-25T13:16:08;14.53;39.20
75363;DHT22;64122;51.988;5.892;2023-04-25T13:18:42;14.36;38.70
75363;DHT22;64122;51.988;5.892;2023-04-25T13:21:12;14.17;39.14
75363;DHT22;64122;51.988;5.892;2023-04-25T13:23:41;14.07;39.03
75363;DHT22;64122;51.988;5.892;2023-04-25T13:26:12;14.12;38.17
75363;DHT22;64122;51.988;5.892;2023-04-25T13:28:42;14.33;37.56
75363;DHT22;64122;51.988;5.892;2023-04-25T13:31:14;14.51;36.61
75363;DHT22;64122;51.988;5.892;2023-04-25T13:33:43;14.44;35.60
75363;DHT22;64122;51.988;5.892;2023-04-25T13:36:13;14.38;35.89
75363;DHT22;64122;51.988;5.892;2023-04-25T13:38:42;14.37;36.69
75363;DHT22;64122;51.988;5.892;2023-04-25T13:41:13;14.35;37.63
75363;DHT22;64122;51.988;5.892;2023-04-25T13:43:45;14.37;37.53
75363;DHT22;64122;51.988;5.892;2023-04-25T13:46:18;14.52;36.62
75363;DHT22;64122;51.988;5.892;2023-04-25T13:48:48;14.56;36.37
75363;DHT22;64122;51.988;5.892;2023-04-25T13:51:17;14.50;36.12
75363;DHT22;64122;51.988;5.892;2023-04-25T13:53:46;14.36;36.53
75363;DHT22;64122;51.988;5.892;2023-04-25T13:56:16;14.10;36.24
75363;DHT22;64122;51.988;5.892;2023-04-25T13:58:45;14.05;36.92
75363;DHT22;64122;51.988;5.892;2023-04-25T14:01:15;14.00;36.64
75363;DHT22;64122;51.988;5.892;2023-04-25T14:03:47;13.93;35.51
75363;DHT22;64122;51.988;5.892;2023-04-25T14:06:16;14.05;35.36
75363;DHT22;64122;51.988;5.892;2023-04-25T14:08:48;14.06;36.32
75363;DHT22;64122;51.988;5.892;2023-04-25T14:11:17;14.09;36.27
75363;DHT22;64122;51.988;5.892;2023-04-25T14:13:47;13.93;37.11
75363;DHT22;64122;51.988;5.892;2023-04-25T14:16:16;13.76;37.53
75363;DHT22;64122;51.988;5.892;2023-04-25T14:18:48;13.71;38.11
75363;DHT22;64122;51.988;5.892;2023-04-25T14:21:18;13.77;38.59
75363;DHT22;64122;51.988;5.892;2023-04-25T14:23:47;13.75;39.10
75363;DHT22;64122;51.988;5.892;2023-04-25T14:26:17;13.78;39.43
75363;DHT22;64122;51.988;5.892;2023-04-25T14:28:46;13.97;38.16
75363;DHT22;64122;51.988;5.892;2023-04-25T14:31:15;13.95;37.65
75363;DHT22;64122;51.988;5.892;2023-04-25T14:33:44;14.13;37.73
75363;DHT22;64122;51.988;5.892;2023-04-25T14:36:16;14.07;36.87
75363;DHT22;64122;51.988;5.892;2023-04-25T14:38:46;14.18;37.19
75363;DHT22;64122;51.988;5.892;2023-04-25T14:41:17;14.42;37.08
75363;DHT22;64122;51.988;5.892;2023-04-25T14:43:47;14.56;35.95
75363;DHT22;64122;51.988;5.892;2023-04-25T14:46:17;14.53;36.01
75363;DHT22;64122;51.988;5.892;2023-04-25T14:48:46;14.42;35.51
75363;DHT22;64122;51.988;5.892;2023-04-25T14:51:18;14.24;34.73
75363;DHT22;64122;51.988;5.892;2023-04-25T14:53:47;14.07;34.40
75363;DHT22;64122;51.988;5.892;2023-04-25T14:56:17;14.23;34.89
75363;DHT22;64122;51.988;5.892;2023-04-25T14:58:46;14.29;36.00
75363;DHT22;64122;51.988;5.892;2023-04-25T15:01:15;14.23;36.86
75363;DHT22;64122;51.988;5.892;2023-04-25T15:03:46;14.01;37.82
75363;DHT22;64122;51.988;5.892;2023-04-25T15:06:18;13.91;37.46
75363;DHT22;64122;51.988;5.892;2023-04-25T15:08:47;13.94;38.31
75363;DHT22;64122;51.988;5.892;2023-04-25T15:11:16;14.04;37.42
75363;DHT22;64122;51.988;5.892;2023-04-25T15:13:46;14.13;36.58
75363;DHT22;64122;51.988;5.892;2023-04-25T15:16:15;14.28;36.49
75363;DHT22;64122;51.988;5.892;2023-04-25T15:18:44;14.35;35.65
75363;DHT22;64122;51.988;5.892;2023-04-25T15:21:14;14.06;36.15
75363;DHT22;64122;51.988;5.892;2023-04-25T15:23:45;13.76;36.50
75363;DHT22;64122;51.988;5.892;2023-04-25T15:26:15;13.55;37.51
75363;DHT22;64122;51.988;5.892;2023-04-25T15:28:44;13.37;38.91
75363;DHT22;64122;51.988;5.892;2023-04-25T15:31:14;13.19;39.91
75363;DHT22;64122;51.988;5.892;2023-04-25T15:33:43;13.14;40.63
75363;DHT22;64122;51.988;5.892;2023-04-25T15:36:13;13.04;41.42
75363;DHT22;64122;51.988;5.892;2023-04-25T15:38:45;12.89;41.76
75363;DHT22;64122;51.988;5.892;2023-04-25T15:41:14;12.81;42.08
75363;DHT22;64122;51.988;5.892;2023-04-25T15:43:43;12.79;41.77
75363;DHT22;64122;51.988;5.892;2023-04-25T15:46:12;12.95;41.94
75363;DHT22;64122;51.988;5.892;2023-04-25T15:48:41;13.16;40.78
75363;DHT22;64122;51.988;5.892;2023-04-25T15:51:11;13.47;39.95
75363;DHT22;64122;51.988;5.892;2023-04-25T15:53:40;13.67;39.77
75363;DHT22;64122;51.988;5.892;2023-04-25T15:56:12;13.71;39.04
75363;DHT22;64122;51.988;5.892;2023-04-25T15:58:41;13.74;38.09
75363;DHT22;64122;51.988;5.892;2023-04-25T16:01:10;13.58;37.14
75363;DHT22;64122;51.988;5.892;2023-04-25T16:03:40;13.41;37.59
75363;DHT22;64122;51.988;5.892;2023-04-25T16:06:09;13.34;37.88
75363;DHT22;64122;51.988;5.892;2023-04-25T16:08:38;13.25;37.53
75363;DHT22;64122;51.988;5.892;2023-04-25T16:11:07;13.17;37.50
75363;DHT22;64122;51.988;5.892;2023-04-25T16:13:42;12.97;36.60